Rockwell, Iowa
Current Conditions -  °F | °C
As of 12:53 AM on Thursday 27 Nov 2014 (Local Time) from KMCW Reporting Station
Overcast Overcast  
Wind Chill: -5°   Ceiling: 2900
Heat Index: 11°   Visibility: 10mi
Dew Point:   Wind: 15mph
Humidity: 84%   Direction: 310°NW
Pressure: 30.39"   Gusts: NA
Location:  42.99°N, 93.19°W
Report Text: KMCW 270653Z AUTO 31013KT 10SM OVC029 M12/M14 A3039 RMK AO2 UPB40E50 SLP306 P0000 T11171139
Loading
Personal Weather Stations






























Interactive Weather Map New forecast layout! Learn more

10-Day Weather Forecast

Advertisements
Track Severe Weather on mobile